»·PEaware :: UAL241 KDFW-KIAH

UAL241 :: KDFW-KIAH

FLIGHT INFORMATION

Flight Status: Arrived
Operator:
United Airlines
More flights by this operator :: More flights under this callsign
Pilot: Anonymous 14085 (14085)
Aircraft: BOEING 737-800
(B738)
More flights by this aircraft type
Origin: KDFW Dallas-Ft Worth Intl
United States
Destination: KIAH G Bush Intercontinental/Houst
United States
More flights between these airports :: More routes between these airports
Route: DARTZ7 TORNN RIICE7
File this flight plan on PilotEdge
Remarks: PBN / A1B1C1D1S1S2 DOF / 170512 REG / N806SB EET / KZHU0019 OPR / UAL RMK / TCAS SIMBRIEF
Altitude:
(Current/Filed)
27,000ft
Speed:
(Current/Filed)
410kts
Departed: 11-May-17 09:35 PM
Arrived: 11-May-17 10:16 PM
Distance/Time
Traveled:
195nm/0:41
Distance/Time
To Go:
Arrived

Flight Plot

Page will automatically refresh every two minutes.

Flight plan parsing failed; only flown route is shown


Map Options




Map Legend


Flown Route
Filed Route
Departure Airport
Arrival Airport
Navaid (VOR, NDB)
Fix

Horizontal Profiles

Position Reports

Time Latitude Longitude Heading Altitude Ground
Speed
11-May-17 21:16 32.893297 -97.038017 190 615ft 0kts
11-May-17 21:17 32.893297 -97.038017 190 615ft 0kts
11-May-17 21:18 32.893297 -97.038017 190 615ft 0kts
11-May-17 21:19 32.893297 -97.038017 190 615ft 0kts
11-May-17 21:20 32.893297 -97.038017 190 615ft 0kts
11-May-17 21:21 32.893297 -97.038017 190 615ft 0kts
11-May-17 21:22 32.893297 -97.038017 190 615ft 0kts
11-May-17 21:23 32.893297 -97.038017 190 615ft 0kts
11-May-17 21:24 32.893297 -97.038017 190 615ft 0kts
11-May-17 21:25 32.893297 -97.038017 190 615ft 0kts
11-May-17 21:26 32.893297 -97.038017 190 615ft 0kts
11-May-17 21:27 32.893795 -97.038180 90 615ft 1kts
11-May-17 21:28 32.893793 -97.037799 90 615ft 3kts
11-May-17 21:29 32.893773 -97.036499 90 615ft 7kts
11-May-17 21:30 32.893944 -97.035388 87 615ft 0kts
11-May-17 21:31 32.893941 -97.033890 90 615ft 1kts
11-May-17 21:32 32.892665 -97.031957 181 615ft 8kts
11-May-17 21:33 32.890037 -97.031971 180 615ft 9kts
11-May-17 21:34 32.884679 -97.032028 182 615ft 19kts
11-May-17 21:35 32.879894 -97.031866 130 615ft 12kts
11-May-17 21:36 32.880497 -97.030062 359 615ft 28kts
11-May-17 21:37 32.922295 -97.027445 359 2182ft 224kts
11-May-17 21:38 32.985185 -97.009898 21 5290ft 275kts
11-May-17 21:39 33.014887 -96.929882 94 9093ft 308kts
11-May-17 21:40 32.986291 -96.829476 130 11879ft 355kts
11-May-17 21:41 32.899409 -96.790637 184 15399ft 350kts
11-May-17 21:42 32.803083 -96.791666 187 18674ft 362kts
11-May-17 21:43 32.703034 -96.794555 188 21074ft 374kts
11-May-17 21:44 32.599256 -96.798673 189 23091ft 385kts
11-May-17 21:45 32.492485 -96.802880 189 25028ft 394kts
11-May-17 21:46 32.402157 -96.806415 190 26679ft 395kts
11-May-17 21:47 32.288484 -96.808538 178 26970ft 456kts
11-May-17 21:48 32.161295 -96.762492 168 26943ft 490kts
11-May-17 21:49 32.032693 -96.712489 168 26944ft 490kts
11-May-17 21:50 31.908053 -96.649499 159 26947ft 498kts
11-May-17 21:51 31.788028 -96.578222 159 26947ft 498kts
11-May-17 21:52 31.665366 -96.505538 159 26974ft 496kts
11-May-17 21:53 31.543148 -96.433353 159 26975ft 496kts
11-May-17 21:54 31.422369 -96.362223 159 26976ft 485kts
11-May-17 21:55 31.303910 -96.292614 159 26128ft 469kts
11-May-17 21:56 31.194115 -96.228161 160 23954ft 436kts
11-May-17 21:57 31.089437 -96.166964 159 21748ft 409kts
11-May-17 21:58 30.991716 -96.109968 159 19460ft 384kts
11-May-17 21:59 30.900169 -96.056787 159 17241ft 370kts
11-May-17 22:00 30.811987 -96.005723 158 15044ft 354kts
11-May-17 22:01 30.725917 -95.956012 157 12846ft 343kts
11-May-17 22:02 30.642589 -95.907901 157 10711ft 332kts
11-May-17 22:03 30.562075 -95.861521 156 8644ft 321kts
11-May-17 22:04 30.483825 -95.816418 157 6631ft 311kts
11-May-17 22:05 30.410152 -95.773980 157 4477ft 285kts
11-May-17 22:06 30.341940 -95.735212 155 2290ft 269kts
11-May-17 22:07 30.279231 -95.707544 159 2041ft 210kts
11-May-17 22:08 30.227143 -95.684922 159 1961ft 182kts
11-May-17 22:09 30.178289 -95.663798 159 1987ft 194kts
11-May-17 22:10 30.128687 -95.641356 155 1985ft 191kts
11-May-17 22:11 30.081715 -95.615059 155 1986ft 187kts
11-May-17 22:12 30.035511 -95.589506 155 1987ft 185kts
11-May-17 22:13 29.994515 -95.556870 107 1990ft 187kts
11-May-17 22:14 29.993326 -95.499063 89 1971ft 162kts
11-May-17 22:15 29.993343 -95.447912 90 1731ft 157kts
11-May-17 22:16 29.993749 -95.396581 89 919ft 164kts
11-May-17 22:17 29.993414 -95.346977 89 106ft 124kts
11-May-17 22:18 29.992349 -95.337968 121 106ft 8kts
11-May-17 22:19 29.990168 -95.337174 182 105ft 9kts
11-May-17 22:20 29.989678 -95.337922 270 106ft 0kts
11-May-17 22:21 29.989678 -95.337922 270 106ft 0kts
11-May-17 22:22 29.989678 -95.337922 270 106ft 0kts

Navigation Log

Ident Type
Flight plan parsing failed, navigation log unavailable